Terminal Aerodrome Forecast
Issued by NWS North Platte, NE

Home | Current Version | Previous Version | Text Only | Print | Product List | Glossary On
Versions: 1 2 3 4 5 6 7 8 9 10 11 12 13 14 15 16 17 18
000
FTUS43 KLBF 251700
TAFLBF
TAF
KLBF 251725Z 2518/2618 13007KT P6SM SKC
     FM260600 12005KT 1SM BR OVC005
     FM261400 VRB04KT 3SM BR BKN010=

USA.gov is the U.S. government's official web portal to all federal, state and local government web resources and services.